Time;durP1;ratioP1;P1;durP2;ratioP2;P2;SDS_P1;SDS_P2;PMS_P1;PMS_P2;Temp;Humidity;BMP_temperature;BMP_pressure;BME280_temperature;BME280_humidity;BME280_pressure;Samples;Min_cycle;Max_cycle;Signal;HPM_P1;HPM_P2
2022/06/08 00:02:20;;;;;;;2.35;0.65;;;19.00;99.90;;;;;;1894200;75;21089;-83
2022/06/08 00:05:12;;;;;;;1.72;0.60;;;19.00;99.90;;;;;;1910832;74;21147;-83
2022/06/08 00:08:22;;;;;;;2.52;0.75;;;19.00;99.90;;;;;;1900285;75;21096;-83
2022/06/08 00:11:14;;;;;;;4.25;1.05;;;19.00;99.90;;;;;;1911960;75;21117;-83
2022/06/08 00:14:06;;;;;;;3.87;0.80;;;19.00;99.90;;;;;;1897455;75;21169;-82
2022/06/08 00:16:58;;;;;;;3.25;0.88;;;19.00;99.90;;;;;;1913451;75;21055;-82
2022/06/08 00:22:29;;;;;;;3.27;0.70;;;18.90;99.90;;;;;;1954922;72;22658;-83
2022/06/08 00:25:39;;;;;;;4.62;0.80;;;18.90;99.90;;;;;;1888760;75;21055;-83
2022/06/08 00:28:49;;;;;;;1.70;0.78;;;19.00;99.90;;;;;;1899851;75;21627;-83
2022/06/08 00:31:40;;;;;;;2.95;0.90;;;19.00;99.90;;;;;;1900694;75;21451;-83
2022/06/08 00:34:49;;;;;;;3.10;0.90;;;19.10;99.90;;;;;;1908824;75;21176;-83
2022/06/08 00:37:41;;;;;;;3.92;0.90;;;19.10;99.90;;;;;;1892169;75;21097;-83
2022/06/08 00:40:36;;;;;;;1.25;0.70;;;19.10;99.90;;;;;;1906318;75;21624;-83
2022/06/08 00:46:10;;;;;;;1.85;0.80;;;18.70;99.90;;;;;;1948228;72;22313;-83
2022/06/08 00:49:24;;;;;;;2.42;0.70;;;18.70;99.90;;;;;;1903857;75;21059;-83
2022/06/08 00:52:34;;;;;;;3.27;0.80;;;18.70;99.90;;;;;;1886002;75;21102;-83
2022/06/08 00:55:30;;;;;;;3.95;0.78;;;18.60;99.90;;;;;;1915324;75;21097;-83
2022/06/08 00:58:40;;;;;;;1.30;0.68;;;18.60;99.90;;;;;;1893436;75;21035;-83
2022/06/08 01:01:31;;;;;;;3.42;0.62;;;18.60;99.90;;;;;;1899179;75;21621;-83
2022/06/08 01:04:24;;;;;;;1.47;0.57;;;18.50;99.90;;;;;;1900233;75;21070;-83
2022/06/08 01:07:20;;;;;;;1.62;0.60;;;18.50;99.90;;;;;;1882365;75;21066;-83
2022/06/08 01:10:16;;;;;;;2.02;0.80;;;18.50;99.90;;;;;;1899528;75;21161;-83
2022/06/08 01:13:08;;;;;;;2.75;0.95;;;18.50;99.90;;;;;;1898530;75;21050;-83
2022/06/08 01:16:02;;;;;;;2.27;0.82;;;18.50;99.90;;;;;;1884637;75;21122;-83
2022/06/08 01:24:52;;;;;;;2.75;0.80;;;18.40;99.90;;;;;;1929050;72;22121;-83
2022/06/08 01:30:51;;;;;;;1.07;0.62;;;18.50;99.90;;;;;;1937098;72;22192;-82
2022/06/08 01:36:58;;;;;;;2.08;0.75;;;18.50;99.90;;;;;;1940323;72;22229;-83
2022/06/08 01:40:17;;;;;;;1.55;0.70;;;18.50;99.90;;;;;;1895166;75;21680;-83
2022/06/08 01:46:18;;;;;;;1.60;0.70;;;18.50;99.90;;;;;;1950664;72;22219;-83
2022/06/08 01:49:33;;;;;;;3.55;0.65;;;18.50;99.90;;;;;;1914747;75;21057;-83
2022/06/08 01:52:46;;;;;;;2.55;0.80;;;18.40;99.90;;;;;;1917052;75;21045;-82
2022/06/08 01:55:42;;;;;;;3.02;0.72;;;18.40;99.90;;;;;;1912458;75;21077;-83
2022/06/08 01:58:56;;;;;;;1.87;0.78;;;18.40;99.90;;;;;;1913638;75;21133;-83
2022/06/08 02:01:51;;;;;;;3.87;0.75;;;18.40;99.90;;;;;;1914260;75;21080;-83
2022/06/08 02:07:32;;;;;;;4.33;1.02;;;18.50;99.90;;;;;;1942761;72;22195;-83
2022/06/08 02:10:47;;;;;;;2.47;0.80;;;18.50;99.90;;;;;;1885096;75;21155;-83
2022/06/08 02:16:39;;;;;;;1.92;0.70;;;18.50;99.90;;;;;;1952497;72;22240;-83
2022/06/08 02:19:52;;;;;;;4.30;0.70;;;18.40;99.90;;;;;;1917251;74;21047;-84
2022/06/08 02:23:06;;;;;;;1.47;0.70;;;18.40;99.90;;;;;;1928002;74;21131;-83
2022/06/08 02:26:00;;;;;;;2.67;0.70;;;18.40;99.90;;;;;;1915453;74;21114;-84
2022/06/08 02:29:13;;;;;;;1.50;0.60;;;18.40;99.90;;;;;;1911558;74;21618;-83
2022/06/08 02:34:27;;;;;;;1.60;0.50;;;18.50;99.90;;;;;;1905368;74;21176;-84
2022/06/08 02:35:06;;;;;;;1.33;0.60;;;18.50;99.90;;;;;;1917642;74;21196;-83
2022/06/08 02:38:00;;;;;;;2.70;0.82;;;18.50;99.90;;;;;;1923620;74;21076;-84
2022/06/08 02:40:55;;;;;;;2.20;1.10;;;18.50;99.90;;;;;;1928066;74;21151;-84
2022/06/08 02:43:50;;;;;;;1.72;0.70;;;18.50;99.90;;;;;;1925997;74;21101;-83
2022/06/08 02:46:50;;;;;;;1.72;0.75;;;18.50;99.90;;;;;;1921108;74;21139;-83
2022/06/08 02:52:23;;;;;;;2.25;0.70;;;18.50;99.90;;;;;;1935210;72;22283;-83
2022/06/08 02:55:38;;;;;;;2.10;0.57;;;18.50;99.90;;;;;;1899260;75;21071;-83
2022/06/08 02:58:50;;;;;;;1.98;0.70;;;18.40;99.90;;;;;;1889378;75;21085;-84
2022/06/08 03:01:47;;;;;;;1.62;0.60;;;18.40;99.90;;;;;;1895827;75;21171;-83
2022/06/08 03:05:02;;;;;;;1.82;0.95;;;18.30;99.90;;;;;;1888079;75;21070;-83
2022/06/08 03:07:58;;;;;;;1.20;0.75;;;18.20;99.90;;;;;;1892869;75;21106;-83
2022/06/08 03:10:52;;;;;;;1.57;0.80;;;18.20;99.90;;;;;;1895639;75;21072;-84
2022/06/08 03:13:48;;;;;;;1.35;0.60;;;18.20;99.90;;;;;;1877825;75;21098;-83
2022/06/08 03:16:42;;;;;;;2.90;0.80;;;18.20;99.90;;;;;;1875256;75;21106;-83
2022/06/08 03:19:37;;;;;;;2.20;0.90;;;18.30;99.90;;;;;;1891660;75;21117;-83
2022/06/08 03:22:30;;;;;;;4.55;1.10;;;18.20;99.90;;;;;;1879247;75;21105;-83
2022/06/08 03:25:23;;;;;;;2.92;0.80;;;18.10;99.90;;;;;;1888720;75;21106;-83
2022/06/08 03:28:15;;;;;;;3.10;0.85;;;18.10;99.90;;;;;;1897739;75;21503;-83
2022/06/08 03:31:06;;;;;;;1.00;0.62;;;18.10;99.90;;;;;;1896166;75;21089;-82
2022/06/08 03:36:37;;;;;;;3.27;0.70;;;18.20;99.90;;;;;;1925882;72;22281;-83
2022/06/08 03:39:47;;;;;;;1.75;0.70;;;18.20;99.90;;;;;;1890989;74;21102;-83
2022/06/08 03:42:57;;;;;;;1.62;0.90;;;18.20;99.90;;;;;;1917041;74;21074;-83
2022/06/08 03:45:52;;;;;;;0.88;0.70;;;18.20;99.90;;;;;;1915644;74;21136;-83
2022/06/08 03:49:02;;;;;;;3.83;0.70;;;18.10;99.90;;;;;;1853147;76;21055;-82
2022/06/08 03:51:58;;;;;;;1.80;0.80;;;18.10;99.90;;;;;;1911879;74;21156;-83
2022/06/08 03:54:52;;;;;;;1.47;0.62;;;18.10;99.90;;;;;;1912119;74;21232;-83
2022/06/08 03:57:45;;;;;;;2.20;0.70;;;18.10;99.90;;;;;;1923210;74;21052;-83
2022/06/08 04:00:38;;;;;;;3.75;0.90;;;18.10;99.90;;;;;;1914047;74;21147;-83
2022/06/08 04:03:31;;;;;;;3.15;0.53;;;18.10;99.90;;;;;;1906878;74;21179;-83
2022/06/08 04:06:23;;;;;;;2.22;0.80;;;18.10;99.90;;;;;;1889573;75;21557;-83
2022/06/08 04:09:15;;;;;;;2.05;0.85;;;18.10;99.90;;;;;;1917110;73;21105;-83
2022/06/08 04:12:10;;;;;;;4.78;0.70;;;18.10;99.90;;;;;;1913856;74;21055;-83
2022/06/08 04:15:03;;;;;;;3.05;0.90;;;18.20;99.90;;;;;;1919837;74;21587;-83
2022/06/08 04:17:57;;;;;;;1.92;0.80;;;18.10;99.90;;;;;;1916254;73;21052;-83
2022/06/08 04:20:51;;;;;;;3.67;0.93;;;18.10;99.90;;;;;;1910840;74;21046;-83
2022/06/08 04:26:23;;;;;;;3.55;0.70;;;18.00;99.90;;;;;;1945838;72;22227;-83
2022/06/08 04:29:34;;;;;;;2.67;0.88;;;17.90;99.90;;;;;;1923034;74;21106;-84
2022/06/08 04:32:45;;;;;;;3.80;1.10;;;17.90;99.90;;;;;;1906576;74;21047;-84
2022/06/08 04:35:38;;;;;;;0.98;0.62;;;17.90;99.90;;;;;;1921815;74;21080;-83
2022/06/08 04:38:48;;;;;;;3.12;1.00;;;17.90;99.90;;;;;;1905351;74;21043;-83
2022/06/08 04:41:41;;;;;;;5.00;0.80;;;17.80;99.90;;;;;;1914682;74;21066;-83
2022/06/08 04:47:11;;;;;;;2.95;0.80;;;17.90;99.90;;;;;;1938716;72;22251;-83
2022/06/08 04:50:22;;;;;;;4.35;0.90;;;18.00;99.90;;;;;;1893334;74;21036;-84
2022/06/08 04:53:33;;;;;;;2.95;1.40;;;18.00;99.90;;;;;;1891818;75;21115;-84
2022/06/08 04:56:25;;;;;;;2.02;0.88;;;18.00;99.90;;;;;;1873104;75;21138;-83
2022/06/08 05:08:34;;;;;;;2.83;0.90;;;18.30;99.90;;;;;;1955773;72;22300;-83
2022/06/08 05:11:46;;;;;;;1.45;0.70;;;18.50;99.90;;;;;;1905420;75;21101;-83
2022/06/08 05:14:57;;;;;;;2.77;0.80;;;18.60;99.90;;;;;;1907119;75;21156;-84
2022/06/08 05:17:49;;;;;;;2.85;0.95;;;18.60;99.90;;;;;;1896964;75;21082;-84
2022/06/08 05:20:59;;;;;;;0.95;0.70;;;18.70;99.90;;;;;;1886221;75;21079;-84
2022/06/08 05:23:53;;;;;;;3.45;1.02;;;18.80;99.90;;;;;;1892442;75;21264;-84
2022/06/08 05:26:52;;;;;;;3.42;1.45;;;18.80;99.90;;;;;;1908651;75;21365;-84
2022/06/08 05:29:44;;;;;;;4.12;1.00;;;18.70;99.90;;;;;;1895126;75;21039;-83
2022/06/08 05:32:35;;;;;;;3.00;0.93;;;18.70;99.90;;;;;;1886126;75;21063;-83
2022/06/08 05:35:29;;;;;;;3.98;0.90;;;18.60;99.90;;;;;;1899872;75;21193;-84
2022/06/08 05:41:03;;;;;;;3.35;0.90;;;18.50;99.90;;;;;;1925301;72;22295;-83
2022/06/08 05:44:15;;;;;;;1.82;0.88;;;18.40;99.90;;;;;;1895971;75;21409;-82
2022/06/08 05:47:27;;;;;;;1.62;0.88;;;18.40;99.90;;;;;;1882984;75;21110;-83
2022/06/08 05:50:20;;;;;;;5.90;1.40;;;18.40;99.90;;;;;;1902322;75;21125;-82
2022/06/08 05:56:13;;;;;;;2.15;0.85;;;18.40;99.90;;;;;;1955994;72;22183;-83
2022/06/08 05:59:24;;;;;;;3.67;0.85;;;18.50;99.90;;;;;;1931599;73;21136;-82
2022/06/08 06:02:35;;;;;;;1.77;0.95;;;18.50;99.90;;;;;;1917422;75;21137;-83
2022/06/08 06:05:30;;;;;;;2.33;0.90;;;18.70;99.90;;;;;;1942282;73;21538;-83
2022/06/08 06:08:42;;;;;;;1.55;0.80;;;18.90;99.90;;;;;;1919559;73;21059;-83
2022/06/08 06:11:35;;;;;;;2.87;1.10;;;19.00;99.90;;;;;;1918329;73;21185;-83
2022/06/08 06:17:06;;;;;;;2.45;1.00;;;19.20;99.90;;;;;;1969036;72;22200;-83
2022/06/08 06:20:18;;;;;;;3.85;0.80;;;19.30;99.90;;;;;;1940340;73;21130;-84
2022/06/08 06:23:33;;;;;;;2.95;0.98;;;19.30;99.90;;;;;;1900850;75;21561;-84
2022/06/08 06:26:39;;;;;;;2.30;0.70;;;19.30;99.90;;;;;;1841883;75;21128;-85
2022/06/08 06:29:54;;;;;;;4.17;0.95;;;19.40;99.90;;;;;;1911119;75;21101;-82
2022/06/08 06:32:59;;;;;;;3.58;1.00;;;19.60;99.90;;;;;;1903324;75;21117;-83
2022/06/08 06:35:52;;;;;;;2.87;1.10;;;19.60;99.90;;;;;;1924306;74;21067;-77
2022/06/08 06:38:45;;;;;;;2.85;1.00;;;19.60;99.90;;;;;;1900254;73;21135;-80
2022/06/08 06:41:38;;;;;;;4.95;1.02;;;19.70;99.90;;;;;;1897337;75;21106;-81
2022/06/08 06:44:30;;;;;;;5.17;1.00;;;19.80;99.90;;;;;;1911349;75;21107;-81
2022/06/08 06:47:23;;;;;;;1.95;0.90;;;19.80;99.90;;;;;;1902002;74;21051;-82
2022/06/08 06:52:54;;;;;;;1.47;1.00;;;20.00;99.90;;;;;;1965711;72;22321;-82
2022/06/08 06:56:08;;;;;;;4.15;0.82;;;20.20;99.90;;;;;;1923296;74;21075;-82
2022/06/08 06:59:21;;;;;;;5.20;0.93;;;20.30;99.90;;;;;;1914276;74;21553;-83
2022/06/08 07:02:15;;;;;;;2.50;1.30;;;20.40;99.90;;;;;;1865592;76;21201;-81
2022/06/08 07:05:28;;;;;;;2.05;1.25;;;20.50;99.90;;;;;;1850030;77;21196;-82
2022/06/08 07:08:20;;;;;;;2.55;1.00;;;20.50;99.90;;;;;;1904701;74;21094;-81
2022/06/08 07:11:33;;;;;;;2.20;0.90;;;20.60;99.90;;;;;;1904483;74;21107;-82
2022/06/08 07:14:43;;;;;;;2.47;0.90;;;20.50;99.90;;;;;;1917105;74;21216;-81
2022/06/08 07:17:36;;;;;;;2.58;1.00;;;20.60;99.90;;;;;;1923011;74;21167;-81
2022/06/08 07:20:27;;;;;;;3.33;1.00;;;20.60;99.90;;;;;;1926471;74;21063;-81
2022/06/08 07:25:59;;;;;;;2.62;0.93;;;20.90;99.90;;;;;;1962129;72;22185;-83
2022/06/08 07:29:09;;;;;;;5.78;2.10;;;20.90;99.90;;;;;;1919151;74;21051;-82
2022/06/08 07:32:19;;;;;;;2.52;1.50;;;20.80;99.90;;;;;;1905167;74;21142;-82
2022/06/08 07:35:12;;;;;;;3.35;1.20;;;20.90;99.90;;;;;;1925228;74;21102;-82
2022/06/08 07:38:23;;;;;;;4.28;1.17;;;20.90;99.90;;;;;;1909145;74;21141;-81
2022/06/08 07:41:15;;;;;;;4.45;1.40;;;21.00;99.90;;;;;;1917735;74;21180;-83
2022/06/08 07:44:07;;;;;;;5.50;1.42;;;21.00;99.90;;;;;;1916110;74;21115;-82
2022/06/08 07:47:05;;;;;;;4.20;1.10;;;21.00;99.90;;;;;;1914752;74;21095;-81
2022/06/08 07:52:37;;;;;;;7.05;1.40;;;21.70;99.90;;;;;;1944794;72;22174;-81
2022/06/08 07:55:48;;;;;;;4.72;1.20;;;21.90;99.90;;;;;;1910659;74;21119;-82
2022/06/08 07:58:58;;;;;;;3.17;0.98;;;22.10;99.90;;;;;;1936388;74;21044;-81
2022/06/08 08:01:49;;;;;;;5.47;1.00;;;22.20;99.90;;;;;;1915784;74;21094;-81
2022/06/08 08:04:59;;;;;;;3.72;1.22;;;22.20;99.90;;;;;;1926101;74;21066;-83
2022/06/08 08:07:52;;;;;;;3.37;1.12;;;22.00;99.90;;;;;;1933622;74;21576;-82
2022/06/08 08:10:44;;;;;;;4.15;0.90;;;21.90;99.90;;;;;;1912326;74;21055;-81
2022/06/08 08:13:37;;;;;;;3.08;1.07;;;21.70;99.90;;;;;;1911496;74;21075;-82
2022/06/08 08:16:29;;;;;;;6.42;1.70;;;21.90;99.90;;;;;;1905960;74;21127;-82
2022/06/08 08:19:25;;;;;;;2.25;0.88;;;21.90;99.90;;;;;;1925551;74;21043;-82
2022/06/08 08:22:20;;;;;;;4.10;1.55;;;21.90;99.90;;;;;;1909999;74;21136;-82
2022/06/08 08:25:12;;;;;;;5.00;1.10;;;22.00;99.90;;;;;;1908669;74;21064;-81
2022/06/08 08:28:04;;;;;;;4.15;1.20;;;22.00;99.90;;;;;;1913106;74;21175;-81
2022/06/08 08:30:56;;;;;;;6.92;1.20;;;21.80;99.90;;;;;;1928755;74;21080;-82
2022/06/08 08:36:28;;;;;;;6.92;1.30;;;21.80;99.90;;;;;;1956429;72;22123;-81
2022/06/08 08:39:39;;;;;;;2.30;1.20;;;21.70;99.90;;;;;;1936793;73;21129;-82
2022/06/08 08:42:49;;;;;;;4.37;1.07;;;21.70;99.90;;;;;;1923159;73;21094;-81
2022/06/08 08:46:00;;;;;;;3.25;1.45;;;21.60;99.90;;;;;;1928096;73;21081;-82
2022/06/08 08:51:57;;;;;;;4.37;1.27;;;21.20;99.90;;;;;;1938289;72;22353;-82
2022/06/08 08:55:15;;;;;;;3.72;1.17;;;21.30;99.90;;;;;;1903490;75;21081;-81
2022/06/08 08:58:29;;;;;;;3.22;1.10;;;21.30;99.90;;;;;;1884546;75;21136;-81
2022/06/08 09:01:23;;;;;;;5.28;1.10;;;21.10;99.90;;;;;;1884759;75;21128;-81
2022/06/08 09:04:37;;;;;;;3.85;1.17;;;21.20;99.90;;;;;;1900739;75;21527;-81
2022/06/08 09:07:31;;;;;;;6.75;1.22;;;21.10;99.90;;;;;;1896523;75;21042;-82
2022/06/08 09:10:28;;;;;;;3.37;1.32;;;21.00;99.90;;;;;;1887935;75;21051;-82
2022/06/08 09:13:23;;;;;;;3.20;1.40;;;21.00;99.90;;;;;;1909621;75;21127;-81
2022/06/08 09:16:36;;;;;;;3.83;1.30;;;20.80;99.90;;;;;;1896896;75;21127;-82
2022/06/08 09:19:32;;;;;;;3.42;1.10;;;20.60;99.90;;;;;;1901405;75;21058;-82
2022/06/08 09:22:29;;;;;;;2.92;1.22;;;20.40;99.90;;;;;;1900242;75;21121;-81
2022/06/08 09:25:28;;;;;;;4.08;1.00;;;20.30;99.90;;;;;;1896465;75;21090;-82
2022/06/08 09:28:30;;;;;;;4.35;1.20;;;20.20;99.90;;;;;;1895209;75;21150;-82
2022/06/08 09:31:27;;;;;;;3.33;0.90;;;20.20;99.90;;;;;;1895567;75;21558;-82
2022/06/08 09:34:24;;;;;;;5.35;1.10;;;20.40;99.90;;;;;;1895883;75;21148;-82
2022/06/08 09:37:20;;;;;;;2.52;1.10;;;20.60;99.90;;;;;;1897720;75;21834;-82
2022/06/08 09:40:36;;;;;;;5.60;1.47;;;20.60;99.90;;;;;;1900186;75;21087;-82
2022/06/08 09:43:34;;;;;;;4.60;1.20;;;20.60;99.90;;;;;;1897934;75;21503;-82
2022/06/08 09:51:25;;;;;;;4.90;1.20;;;20.50;99.90;;;;;;1897588;75;21135;-82
2022/06/08 09:55:58;;;;;;;2.65;0.82;;;20.30;99.90;;;;;;1967356;72;22155;-81
2022/06/08 09:59:15;;;;;;;1.80;0.50;;;20.10;99.90;;;;;;1905300;75;21086;-83
2022/06/08 10:02:29;;;;;;;2.30;0.72;;;20.20;99.90;;;;;;1905291;75;21043;-81
2022/06/08 10:05:28;;;;;;;2.45;0.53;;;20.10;99.90;;;;;;1905145;75;21192;-81
2022/06/08 10:08:45;;;;;;;3.75;0.50;;;20.00;99.90;;;;;;1905180;75;21052;-82
2022/06/08 10:14:28;;;;;;;2.45;0.60;;;19.90;99.90;;;;;;1954379;72;22103;-82
2022/06/08 10:17:41;;;;;;;3.47;0.75;;;19.70;99.90;;;;;;1901327;75;21121;-82
2022/06/08 10:20:55;;;;;;;2.65;0.85;;;19.60;99.90;;;;;;1900542;75;21094;-81
2022/06/08 10:23:52;;;;;;;3.10;0.95;;;19.50;99.90;;;;;;1896281;75;21646;-81
2022/06/08 10:27:06;;;;;;;2.90;0.65;;;19.40;99.90;;;;;;1896817;75;21097;-80
2022/06/08 10:30:07;;;;;;;5.78;0.80;;;19.20;99.90;;;;;;1895799;75;21084;-80
2022/06/08 10:33:03;;;;;;;2.08;0.60;;;19.00;99.90;;;;;;1895718;75;21156;-80
2022/06/08 10:35:57;;;;;;;3.00;0.80;;;19.00;99.90;;;;;;1895738;75;21156;-80
2022/06/08 10:38:49;;;;;;;2.65;0.57;;;19.00;99.90;;;;;;1899429;75;21067;-80
2022/06/08 10:44:53;;;;;;;1.95;0.60;;;19.10;99.90;;;;;;1896763;75;21117;-80
2022/06/08 10:47:48;;;;;;;2.37;0.70;;;19.20;99.90;;;;;;1895481;75;21636;-82
2022/06/08 10:50:44;;;;;;;2.85;0.80;;;19.10;99.90;;;;;;1914218;75;21114;-80
2022/06/08 10:56:58;;;;;;;3.08;0.98;;;19.10;99.90;;;;;;1896247;75;21486;-80
2022/06/08 11:00:11;;;;;;;4.33;1.10;;;19.20;99.90;;;;;;1902222;75;21087;-80
2022/06/08 11:03:06;;;;;;;3.77;0.95;;;19.10;99.90;;;;;;1903762;74;21129;-81
2022/06/08 11:05:58;;;;;;;2.33;1.07;;;19.10;99.90;;;;;;1896722;75;21464;-80
2022/06/08 11:08:52;;;;;;;5.25;0.90;;;19.10;99.90;;;;;;1895776;75;21138;-81
2022/06/08 11:11:49;;;;;;;3.58;1.02;;;19.20;99.90;;;;;;1914951;75;21609;-81
2022/06/08 11:14:56;;;;;;;3.08;1.00;;;19.30;99.90;;;;;;1895481;75;21196;-81
2022/06/08 11:17:52;;;;;;;3.80;0.80;;;19.30;99.90;;;;;;1867599;76;21141;-81
2022/06/08 11:20:48;;;;;;;3.22;0.95;;;19.30;99.90;;;;;;1892496;75;21124;-80
2022/06/08 11:23:44;;;;;;;1.77;0.98;;;19.40;99.90;;;;;;1895151;75;21062;-80
2022/06/08 11:27:15;;;;;;;3.75;1.40;;;19.40;99.90;;;;;;1894805;75;21117;-80
2022/06/08 11:30:17;;;;;;;5.37;2.15;;;19.50;99.90;;;;;;1896598;75;21042;-80
2022/06/08 11:33:17;;;;;;;3.72;1.67;;;19.50;99.90;;;;;;1882377;75;21133;-81
2022/06/08 11:36:20;;;;;;;4.17;1.65;;;19.60;99.90;;;;;;1883015;75;21502;-81
2022/06/08 11:39:22;;;;;;;5.90;1.75;;;19.80;99.90;;;;;;1882880;75;21055;-81
2022/06/08 11:42:22;;;;;;;6.85;2.10;;;19.90;99.90;;;;;;1884535;75;21064;-81
2022/06/08 11:45:18;;;;;;;5.17;2.50;;;19.80;99.90;;;;;;1872272;77;21592;-81
2022/06/08 11:48:13;;;;;;;4.12;1.50;;;20.10;99.90;;;;;;1884329;75;21072;-81
2022/06/08 11:51:06;;;;;;;2.85;1.60;;;20.40;99.90;;;;;;1874465;75;21059;-81
2022/06/08 11:53:58;;;;;;;4.75;1.70;;;20.60;99.90;;;;;;1893798;75;21055;-82
2022/06/08 11:57:03;;;;;;;4.90;1.90;;;20.90;99.90;;;;;;1904080;75;21131;-81
2022/06/08 11:59:58;;;;;;;5.17;1.75;;;21.30;99.90;;;;;;1872060;77;21149;-81
2022/06/08 12:02:55;;;;;;;3.02;1.40;;;21.70;99.90;;;;;;1872185;77;21056;-82
2022/06/08 12:05:51;;;;;;;3.30;1.70;;;22.00;99.90;;;;;;1871989;77;21071;-81
2022/06/08 12:11:28;;;;;;;3.60;1.70;;;22.30;99.90;;;;;;1947067;72;22091;-80
2022/06/08 12:14:40;;;;;;;3.40;1.37;;;22.30;99.90;;;;;;1915220;75;21031;-81
2022/06/08 12:17:50;;;;;;;7.25;1.82;;;22.20;99.90;;;;;;1854246;76;21093;-81
2022/06/08 12:20:43;;;;;;;2.67;1.50;;;22.40;99.90;;;;;;1885556;75;21032;-82
2022/06/08 12:24:21;;;;;;;4.75;1.77;;;22.80;99.90;;;;;;1886745;75;21199;-82
2022/06/08 12:27:21;;;;;;;2.87;1.12;;;22.70;99.90;;;;;;1891306;75;21133;-82
2022/06/08 12:30:26;;;;;;;4.83;1.55;;;22.40;99.90;;;;;;1884060;75;21079;-82
2022/06/08 12:33:27;;;;;;;5.28;1.50;;;22.50;99.90;;;;;;1883181;75;21166;-82
2022/06/08 12:36:24;;;;;;;3.50;1.50;;;22.80;99.90;;;;;;1878724;75;21044;-82
2022/06/08 12:39:18;;;;;;;4.17;1.25;;;23.10;99.90;;;;;;1894672;75;21229;-82
2022/06/08 12:42:27;;;;;;;4.58;1.37;;;23.50;99.90;;;;;;1891877;75;21148;-82
2022/06/08 12:45:33;;;;;;;3.52;1.42;;;23.50;99.90;;;;;;1887466;75;21107;-82
2022/06/08 12:48:30;;;;;;;2.08;1.10;;;23.60;99.90;;;;;;1873162;76;21059;-81
2022/06/08 12:51:38;;;;;;;2.30;0.90;;;24.10;99.90;;;;;;1884807;75;21059;-82
2022/06/08 12:54:33;;;;;;;3.22;1.02;;;23.80;99.90;;;;;;1883584;75;21056;-82
2022/06/08 12:57:28;;;;;;;2.37;1.05;;;24.00;99.90;;;;;;1883935;75;21051;-82
2022/06/08 13:00:22;;;;;;;3.10;0.70;;;24.20;99.90;;;;;;1883766;75;21087;-82
2022/06/08 13:03:18;;;;;;;2.92;1.00;;;23.70;99.90;;;;;;1905530;75;21067;-82
2022/06/08 13:06:12;;;;;;;4.67;0.80;;;23.60;99.90;;;;;;1888520;75;21107;-82
2022/06/08 13:09:04;;;;;;;3.10;0.70;;;23.80;99.90;;;;;;1873481;75;21122;-82
2022/06/08 13:12:00;;;;;;;2.10;0.72;;;23.80;99.90;;;;;;1894764;75;21174;-82
2022/06/08 13:14:53;;;;;;;2.70;1.00;;;23.50;99.90;;;;;;1894520;75;21064;-82
2022/06/08 13:17:46;;;;;;;3.90;0.70;;;23.40;99.90;;;;;;1891662;75;21056;-82
2022/06/08 13:20:39;;;;;;;2.10;1.10;;;23.30;99.90;;;;;;1891239;75;21088;-82
2022/06/08 13:23:30;;;;;;;4.28;1.00;;;23.10;99.90;;;;;;1894160;75;21567;-82
2022/06/08 13:26:24;;;;;;;0.93;0.60;;;22.90;99.90;;;;;;1893719;75;21060;-82
2022/06/08 13:29:17;;;;;;;2.12;0.88;;;23.10;99.90;;;;;;1872554;75;21095;-82
2022/06/08 13:32:15;;;;;;;1.85;0.80;;;23.30;99.90;;;;;;1888564;75;21554;-82
2022/06/08 13:35:08;;;;;;;1.70;0.80;;;23.40;99.90;;;;;;1884940;75;21200;-82
2022/06/08 13:38:02;;;;;;;5.67;1.00;;;23.30;99.90;;;;;;1883116;75;21048;-83
2022/06/08 13:40:54;;;;;;;2.45;0.90;;;23.20;99.90;;;;;;1882894;75;21067;-82
2022/06/08 13:43:46;;;;;;;4.37;0.70;;;22.80;99.90;;;;;;1884575;75;21103;-82
2022/06/08 13:46:41;;;;;;;3.85;0.90;;;22.70;99.90;;;;;;1887358;75;21161;-82
2022/06/08 13:49:37;;;;;;;3.87;1.00;;;22.60;99.90;;;;;;1883254;75;21136;-82
2022/06/08 13:52:32;;;;;;;1.90;0.95;;;22.60;99.90;;;;;;1883135;75;21056;-82
2022/06/08 13:55:27;;;;;;;5.00;0.90;;;22.50;99.90;;;;;;1882785;75;21048;-82
2022/06/08 13:58:21;;;;;;;2.90;1.00;;;22.50;99.90;;;;;;1885239;75;21051;-82
2022/06/08 14:01:19;;;;;;;2.52;1.10;;;22.30;99.90;;;;;;1886859;75;21213;-82
2022/06/08 14:04:18;;;;;;;2.83;1.05;;;22.40;99.90;;;;;;1872302;75;21067;-82
2022/06/08 14:13:33;;;;;;;2.15;0.88;;;23.20;99.90;;;;;;1893936;75;21144;-82
2022/06/08 14:16:29;;;;;;;4.03;0.80;;;23.60;99.90;;;;;;1895647;75;21174;-82
2022/06/08 14:19:24;;;;;;;1.95;0.95;;;23.60;99.90;;;;;;1904593;75;21585;-82
2022/06/08 14:22:19;;;;;;;1.57;0.72;;;23.30;99.90;;;;;;1872451;75;21069;-82
2022/06/08 14:25:15;;;;;;;1.90;0.80;;;22.90;99.90;;;;;;1881854;75;21579;-82
2022/06/08 14:28:07;;;;;;;1.67;0.72;;;22.70;99.90;;;;;;1882717;75;21080;-82
2022/06/08 14:31:01;;;;;;;1.52;1.00;;;22.80;99.90;;;;;;1883148;75;21102;-82
2022/06/08 14:33:53;;;;;;;1.10;0.70;;;23.00;99.90;;;;;;1886181;75;21054;-82
2022/06/08 14:36:45;;;;;;;1.65;0.60;;;23.40;99.90;;;;;;1872430;75;21065;-82
2022/06/08 14:39:40;;;;;;;4.40;0.70;;;23.30;99.90;;;;;;1881054;75;21504;-82
2022/06/08 14:42:31;;;;;;;1.90;0.70;;;23.00;99.90;;;;;;1882789;75;21162;-82
2022/06/08 14:45:24;;;;;;;1.40;0.70;;;22.90;99.90;;;;;;1883794;75;21094;-82
2022/06/08 14:48:19;;;;;;;1.72;0.55;;;22.80;99.90;;;;;;1888126;75;21098;-82
2022/06/08 14:51:15;;;;;;;1.10;0.50;;;22.70;99.90;;;;;;1883747;75;21047;-82
2022/06/08 14:54:06;;;;;;;2.75;0.70;;;22.80;99.90;;;;;;1882822;75;21106;-82
2022/06/08 14:57:03;;;;;;;2.15;0.50;;;22.70;99.90;;;;;;1882662;75;21115;-81
2022/06/08 14:59:56;;;;;;;1.35;0.40;;;22.80;99.90;;;;;;1884995;75;21153;-81
2022/06/08 15:02:49;;;;;;;1.85;0.50;;;22.90;99.90;;;;;;1872452;77;21059;-81
2022/06/08 15:05:43;;;;;;;0.95;0.50;;;23.00;99.90;;;;;;1893969;75;21112;-82
2022/06/08 15:08:35;;;;;;;1.47;0.50;;;23.30;99.90;;;;;;1893874;75;21187;-81
2022/06/08 15:14:41;;;;;;;2.98;0.90;;;24.30;99.90;;;;;;1892212;75;21087;-82
2022/06/08 15:17:36;;;;;;;2.92;1.32;;;25.20;99.90;;;;;;1904413;75;21107;-82
2022/06/08 15:20:32;;;;;;;1.72;0.88;;;27.30;99.90;;;;;;1883519;75;21188;-82
2022/06/08 15:23:24;;;;;;;2.58;0.90;;;28.60;99.90;;;;;;1883006;75;21048;-82
2022/06/08 15:26:16;;;;;;;1.75;0.70;;;27.60;99.90;;;;;;1882613;75;21106;-82
2022/06/08 15:29:16;;;;;;;1.47;0.93;;;27.30;99.90;;;;;;1885817;75;21110;-82
2022/06/08 15:32:11;;;;;;;2.83;0.85;;;27.70;99.90;;;;;;1887365;75;21151;-82
2022/06/08 15:35:03;;;;;;;3.90;1.15;;;28.90;99.90;;;;;;1883211;75;21479;-82
2022/06/08 15:37:57;;;;;;;3.20;1.50;;;29.30;99.90;;;;;;1876966;75;21152;-82
2022/06/08 15:40:49;;;;;;;1.72;0.53;;;29.00;99.90;;;;;;1874092;75;21150;-82
2022/06/08 15:43:40;;;;;;;1.80;0.65;;;30.60;99.90;;;;;;1886369;75;21061;-82
2022/06/08 15:46:34;;;;;;;2.62;0.70;;;31.80;96.90;;;;;;1885584;75;21048;-82
2022/06/08 15:49:30;;;;;;;2.20;0.50;;;33.00;93.40;;;;;;1882443;75;21562;-82
2022/06/08 15:52:25;;;;;;;2.55;0.68;;;33.80;90.70;;;;;;1899742;75;21081;-81
2022/06/08 15:55:20;;;;;;;1.85;0.55;;;34.20;88.00;;;;;;1893698;75;21157;-81
2022/06/08 15:58:17;;;;;;;0.93;0.40;;;34.40;82.10;;;;;;1889125;75;21118;-83
2022/06/08 16:01:09;;;;;;;1.07;0.50;;;34.10;80.30;;;;;;1885865;75;21055;-82
2022/06/08 16:04:00;;;;;;;0.88;0.40;;;34.00;77.20;;;;;;1882823;75;21574;-83
2022/06/08 16:06:52;;;;;;;1.30;0.30;;;34.90;74.10;;;;;;1882744;75;21523;-82
2022/06/08 16:09:44;;;;;;;1.40;0.40;;;35.20;71.40;;;;;;1885088;75;21134;-82
2022/06/08 16:12:35;;;;;;;0.78;0.30;;;34.70;69.40;;;;;;1886090;74;21564;-82
2022/06/08 16:15:30;;;;;;;0.28;0.28;;;34.00;69.00;;;;;;1882875;75;21129;-82
2022/06/08 16:18:21;;;;;;;1.37;0.40;;;33.70;68.60;;;;;;1882746;75;21229;-82
2022/06/08 16:21:13;;;;;;;1.07;0.80;;;34.20;69.50;;;;;;1893349;75;21137;-82
2022/06/08 16:24:06;;;;;;;1.42;0.60;;;34.10;69.10;;;;;;1888645;75;21121;-82
2022/06/08 16:26:57;;;;;;;1.02;0.50;;;31.90;72.80;;;;;;1883401;75;21522;-82
2022/06/08 16:29:49;;;;;;;2.30;1.00;;;30.20;76.10;;;;;;1882813;75;21048;-82
2022/06/08 16:32:41;;;;;;;1.42;0.47;;;29.60;78.90;;;;;;1904437;75;21129;-82
2022/06/08 16:35:33;;;;;;;1.57;0.57;;;31.90;76.50;;;;;;1887180;75;21067;-82
2022/06/08 16:38:24;;;;;;;1.60;0.50;;;34.90;71.70;;;;;;1885100;75;21519;-82
2022/06/08 16:41:17;;;;;;;1.02;0.50;;;35.70;67.40;;;;;;1882966;75;21510;-82
2022/06/08 16:44:08;;;;;;;1.65;0.53;;;35.30;66.90;;;;;;1879866;75;21119;-82
2022/06/08 16:47:02;;;;;;;1.75;0.60;;;35.30;67.40;;;;;;1872295;75;21190;-82
2022/06/08 16:49:56;;;;;;;1.90;0.50;;;34.40;67.20;;;;;;1872565;77;21156;-82
2022/06/08 16:52:48;;;;;;;1.15;0.42;;;34.90;66.10;;;;;;1894103;75;21102;-82
2022/06/08 16:55:39;;;;;;;0.82;0.60;;;34.80;66.50;;;;;;1872506;75;21249;-82
2022/06/08 17:01:40;;;;;;;1.62;0.53;;;35.30;64.40;;;;;;1892468;75;21114;-82
2022/06/08 17:04:32;;;;;;;1.20;0.55;;;33.50;67.60;;;;;;1872597;77;21102;-82
2022/06/08 17:07:27;;;;;;;1.82;0.70;;;33.70;67.50;;;;;;1894083;75;21059;-81
2022/06/08 17:10:21;;;;;;;0.57;0.50;;;34.60;67.00;;;;;;1894122;75;21064;-81